createdAt,value
2019-05-12T00:02:05.085Z,33.67
2019-05-12T00:04:38.592Z,33.67
2019-05-12T00:07:11.914Z,33.77
2019-05-12T00:09:47.435Z,33.48
2019-05-12T00:12:20.585Z,33.56
2019-05-12T00:14:53.954Z,33.71
2019-05-12T00:17:28.412Z,33.69
2019-05-12T00:20:01.959Z,33.69
2019-05-12T00:22:36.152Z,33.67
2019-05-12T00:25:12.131Z,33.79
2019-05-12T00:27:45.472Z,33.81
2019-05-12T00:30:18.851Z,33.83
2019-05-12T00:32:52.229Z,33.85
2019-05-12T00:35:25.831Z,33.85
2019-05-12T00:38:00.835Z,33.40
2019-05-12T00:40:38.831Z,33.40
2019-05-12T00:43:11.250Z,33.73
2019-05-12T00:45:44.580Z,33.77
2019-05-12T00:48:18.066Z,33.77
2019-05-12T00:50:51.562Z,33.84
2019-05-12T00:53:36.149Z,33.81
2019-05-12T00:56:01.642Z,33.92
2019-05-12T00:58:34.949Z,33.94
2019-05-12T01:01:08.330Z,33.94
2019-05-12T01:03:41.612Z,33.92
2019-05-12T01:06:14.953Z,33.88
2019-05-12T01:08:48.429Z,33.92
2019-05-12T01:11:21.865Z,33.94
2019-05-12T01:13:55.180Z,33.90
2019-05-12T01:16:29.013Z,33.99
2019-05-12T01:19:02.418Z,34.04
2019-05-12T01:21:37.664Z,34.04
2019-05-12T01:24:10.758Z,34.02
2019-05-12T01:26:44.309Z,34.10
2019-05-12T01:29:19.266Z,34.14
2019-05-12T01:31:52.582Z,34.10
2019-05-12T01:34:27.723Z,33.91
2019-05-12T01:37:00.930Z,33.99
2019-05-12T01:39:34.236Z,34.05
2019-05-12T01:42:09.104Z,34.15
2019-05-12T01:44:42.464Z,34.12
2019-05-12T01:47:18.575Z,34.17
2019-05-12T01:49:51.230Z,34.01
2019-05-12T01:52:24.560Z,34.15
2019-05-12T01:54:59.007Z,34.10
2019-05-12T01:57:32.588Z,34.18
2019-05-12T02:00:10.116Z,34.07
2019-05-12T02:02:43.459Z,34.15
2019-05-12T02:05:18.348Z,33.87
2019-05-12T02:07:51.897Z,34.08
2019-05-12T02:10:28.579Z,33.89
2019-05-12T02:13:01.853Z,34.07
2019-05-12T02:15:38.381Z,33.77
2019-05-12T02:18:11.274Z,34.03
2019-05-12T02:20:44.816Z,34.12
2019-05-12T02:23:18.139Z,34.15
2019-05-12T02:25:51.509Z,34.21
2019-05-12T02:28:24.858Z,34.28
2019-05-12T02:30:59.105Z,34.28
2019-05-12T02:33:35.603Z,34.34
2019-05-12T02:36:09.022Z,34.40
2019-05-12T02:38:45.083Z,34.37
2019-05-12T02:41:17.360Z,34.37
2019-05-12T02:43:50.687Z,34.45
2019-05-12T02:46:25.503Z,34.45
2019-05-12T02:48:59.319Z,34.44
2019-05-12T02:51:35.155Z,34.58
2019-05-12T02:54:07.678Z,34.31
2019-05-12T02:56:40.989Z,34.49
2019-05-12T02:59:16.244Z,34.37
2019-05-12T03:01:49.550Z,34.56
2019-05-12T03:04:24.980Z,34.38
2019-05-12T03:07:02.312Z,34.49
2019-05-12T03:09:35.328Z,34.35
2019-05-12T03:12:08.814Z,34.50
2019-05-12T03:14:44.793Z,34.54
2019-05-12T03:17:17.156Z,34.59
2019-05-12T03:19:50.488Z,34.56
2019-05-12T03:22:25.233Z,34.53
2019-05-12T03:25:11.324Z,34.62
2019-05-12T03:27:35.048Z,34.63
2019-05-12T03:30:11.828Z,34.39
2019-05-12T03:32:47.252Z,34.49
2019-05-12T03:35:20.307Z,34.06
2019-05-12T03:37:54.786Z,34.25
2019-05-12T03:40:28.167Z,34.24
2019-05-12T03:43:01.465Z,34.20
2019-05-12T03:45:36.154Z,33.51
2019-05-12T03:48:10.725Z,33.81
2019-05-12T03:50:46.017Z,33.37
2019-05-12T03:53:19.325Z,33.69
2019-05-12T03:55:55.293Z,33.85
2019-05-12T03:58:27.675Z,33.83
2019-05-12T04:01:04.371Z,33.83
2019-05-12T04:03:36.013Z,33.56
2019-05-12T04:06:09.347Z,33.57
2019-05-12T04:08:45.658Z,33.34
2019-05-12T04:11:17.674Z,33.31
2019-05-12T04:13:51.032Z,32.82
2019-05-12T04:16:24.895Z,32.87
2019-05-12T04:18:58.336Z,32.46
2019-05-12T04:21:34.697Z,32.48
2019-05-12T04:24:06.987Z,31.76
2019-05-12T04:26:40.256Z,31.89
2019-05-12T04:29:15.520Z,31.39
2019-05-12T04:31:48.600Z,31.56
2019-05-12T04:34:24.861Z,30.93
2019-05-12T04:36:57.000Z,31.11
2019-05-12T04:39:34.153Z,30.62
2019-05-12T04:42:07.034Z,30.86
2019-05-12T04:44:40.346Z,30.23
2019-05-12T04:47:14.584Z,30.56
2019-05-12T04:49:48.183Z,30.01
2019-05-12T04:52:24.645Z,30.36
2019-05-12T04:54:56.537Z,30.43
2019-05-12T04:57:29.908Z,30.49
2019-05-12T05:00:07.231Z,30.42
2019-05-12T05:02:45.243Z,30.29
2019-05-12T05:05:17.269Z,30.33
2019-05-12T05:07:50.639Z,30.29
2019-05-12T05:10:24.967Z,30.34
2019-05-12T05:12:59.525Z,30.24
2019-05-12T05:15:34.739Z,30.30
2019-05-12T05:18:07.866Z,30.37
2019-05-12T05:20:43.664Z,30.29
2019-05-12T05:23:16.249Z,30.08
2019-05-12T05:25:49.563Z,30.21
2019-05-12T05:28:23.668Z,30.21
2019-05-12T05:30:57.089Z,30.23
2019-05-12T05:33:30.422Z,30.37
2019-05-12T05:36:03.710Z,30.49
2019-05-12T05:38:37.061Z,30.44
2019-05-12T05:41:10.690Z,30.58
2019-05-12T05:43:48.620Z,30.04
2019-05-12T05:46:19.263Z,30.48
2019-05-12T05:48:54.222Z,30.50
2019-05-12T05:51:28.140Z,30.88
2019-05-12T05:54:04.037Z,30.78
2019-05-12T05:56:42.720Z,30.88
2019-05-12T05:59:14.955Z,30.53
2019-05-12T06:01:51.913Z,30.80
2019-05-12T06:04:23.775Z,30.61
2019-05-12T06:06:57.422Z,30.86
2019-05-12T06:09:30.738Z,30.56
2019-05-12T06:12:09.656Z,30.90
2019-05-12T06:14:40.931Z,31.07
2019-05-12T06:17:14.659Z,31.09
2019-05-12T06:19:48.043Z,30.62
2019-05-12T06:22:23.380Z,30.85
2019-05-12T06:24:58.885Z,30.36
2019-05-12T06:27:33.639Z,30.72
2019-05-12T06:30:08.666Z,30.88
2019-05-12T06:32:50.205Z,30.99
2019-05-12T06:35:17.009Z,31.03
2019-05-12T06:38:00.103Z,31.22
2019-05-12T06:40:25.357Z,31.48
2019-05-12T06:42:58.635Z,31.87
2019-05-12T06:45:36.534Z,31.99
2019-05-12T06:48:07.603Z,31.97
2019-05-12T06:50:43.593Z,32.16
2019-05-12T06:53:20.256Z,32.35
2019-05-12T06:55:53.875Z,32.51
2019-05-12T06:58:31.371Z,32.50
2019-05-12T07:01:09.834Z,32.30
2019-05-12T07:03:37.418Z,32.25
2019-05-12T07:06:17.943Z,32.53
2019-05-12T07:08:46.083Z,32.26
2019-05-12T07:11:19.418Z,32.07
2019-05-12T07:14:02.123Z,31.85
2019-05-12T07:16:30.289Z,31.68
2019-05-12T07:19:07.833Z,31.62
2019-05-12T07:21:38.341Z,31.60
2019-05-12T07:24:11.756Z,31.25
2019-05-12T07:26:47.926Z,31.50
2019-05-12T07:29:20.258Z,31.25
2019-05-12T07:31:53.816Z,31.83
2019-05-12T07:34:28.342Z,31.49
2019-05-12T07:37:04.226Z,31.28
2019-05-12T07:39:44.852Z,31.20
2019-05-12T07:42:13.388Z,31.02
2019-05-12T07:44:47.006Z,31.06
2019-05-12T07:47:27.338Z,31.00
2019-05-12T07:49:56.734Z,30.96
2019-05-12T07:52:30.039Z,30.95
2019-05-12T07:55:05.040Z,30.76
2019-05-12T07:57:52.069Z,31.14
2019-05-12T08:00:21.214Z,30.67
2019-05-12T08:02:48.456Z,30.74
2019-05-12T08:05:23.903Z,30.23
2019-05-12T08:08:00.629Z,30.25
2019-05-12T08:10:34.021Z,30.42
2019-05-12T08:13:07.056Z,30.45
2019-05-12T08:15:45.730Z,30.54
2019-05-12T08:18:15.437Z,30.67
2019-05-12T08:20:48.761Z,30.67
2019-05-12T08:23:23.475Z,31.02
2019-05-12T08:25:57.005Z,31.19
2019-05-12T08:28:35.874Z,31.13
2019-05-12T08:31:05.348Z,31.11
2019-05-12T08:33:38.655Z,31.08
2019-05-12T08:36:16.063Z,31.10
2019-05-12T08:38:47.027Z,31.12
2019-05-12T08:41:20.343Z,31.21
2019-05-12T08:43:58.229Z,31.31
2019-05-12T08:46:28.735Z,31.52
2019-05-12T08:49:03.010Z,31.69
2019-05-12T08:51:37.079Z,31.67
2019-05-12T08:54:10.355Z,31.75
2019-05-12T08:56:43.732Z,31.72
2019-05-12T08:59:18.454Z,31.85
2019-05-12T09:01:54.082Z,31.64
2019-05-12T09:04:27.068Z,31.98
2019-05-12T09:07:00.404Z,31.84
2019-05-12T09:09:33.797Z,31.89
2019-05-12T09:12:07.152Z,31.49
2019-05-12T09:14:46.313Z,31.72
2019-05-12T09:17:16.807Z,31.75
2019-05-12T09:19:55.026Z,31.83
2019-05-12T09:22:25.151Z,31.35
2019-05-12T09:25:03.553Z,31.41
2019-05-12T09:27:39.476Z,31.43
2019-05-12T09:30:09.962Z,31.28
2019-05-12T09:32:48.211Z,31.57
2019-05-12T09:35:18.447Z,31.54
2019-05-12T09:37:53.535Z,31.76
2019-05-12T09:40:27.066Z,30.99
2019-05-12T09:43:06.256Z,30.63
2019-05-12T09:45:40.156Z,30.65
2019-05-12T09:48:10.584Z,30.60
2019-05-12T09:50:46.340Z,30.42
2019-05-12T09:53:19.086Z,30.33
2019-05-12T09:55:53.951Z,30.27
2019-05-12T09:58:27.978Z,30.11
2019-05-12T10:01:03.627Z,29.87
2019-05-12T10:03:40.037Z,29.67
2019-05-12T10:06:18.001Z,29.49
2019-05-12T10:08:47.222Z,29.33
2019-05-12T10:11:20.977Z,28.93
2019-05-12T10:13:54.479Z,28.90
2019-05-12T10:16:27.815Z,28.35
2019-05-12T10:19:03.760Z,28.57
2019-05-12T10:21:36.210Z,28.52
2019-05-12T10:24:10.479Z,28.73
2019-05-12T10:26:48.906Z,28.22
2019-05-12T10:29:20.832Z,28.42
2019-05-12T10:31:53.809Z,28.45
2019-05-12T10:34:29.376Z,28.69
2019-05-12T10:37:04.132Z,28.89
2019-05-12T10:39:37.539Z,29.31
2019-05-12T10:42:10.889Z,30.17
2019-05-12T10:44:44.200Z,30.51
2019-05-12T10:47:17.552Z,30.81
2019-05-12T10:49:50.905Z,30.95
2019-05-12T10:52:24.464Z,30.88
2019-05-12T10:54:57.941Z,31.46
2019-05-12T10:57:33.270Z,31.98
2019-05-12T11:00:08.083Z,32.19
2019-05-12T11:02:41.414Z,32.53
2019-05-12T11:05:21.128Z,32.65
2019-05-12T11:07:49.790Z,32.78
2019-05-12T11:10:23.356Z,32.91
2019-05-12T11:12:59.136Z,32.89
2019-05-12T11:15:34.403Z,33.05
2019-05-12T11:20:40.645Z,33.71
2019-05-12T11:23:14.360Z,33.71
2019-05-12T11:25:47.828Z,33.74
2019-05-12T11:28:21.178Z,33.25
2019-05-12T11:30:54.864Z,33.68
2019-05-12T11:33:28.190Z,33.93
2019-05-12T11:36:01.656Z,33.79
2019-05-12T11:38:35.055Z,33.20
2019-05-12T11:41:10.099Z,33.31
2019-05-12T11:43:43.901Z,32.96
2019-05-12T11:46:17.422Z,33.22
2019-05-12T11:48:50.776Z,33.34
2019-05-12T11:51:26.948Z,33.54
2019-05-12T11:54:03.642Z,32.93
2019-05-12T11:56:34.425Z,33.31
2019-05-12T11:59:08.516Z,33.33
2019-05-12T12:01:47.486Z,33.10
2019-05-12T12:04:16.918Z,33.29
2019-05-12T12:06:51.344Z,33.30
2019-05-12T12:09:24.633Z,33.34
2019-05-12T12:12:03.201Z,33.31
2019-05-12T12:14:34.488Z,32.56
2019-05-12T12:17:08.213Z,32.73
2019-05-12T12:19:46.400Z,32.89
2019-05-12T12:22:20.324Z,33.07
2019-05-12T12:24:53.767Z,32.98
2019-05-12T12:27:26.656Z,32.81
2019-05-12T12:30:13.691Z,32.61
2019-05-12T12:32:34.999Z,32.42
2019-05-12T12:35:11.885Z,32.23
2019-05-12T12:37:44.951Z,30.69
2019-05-12T12:40:18.337Z,29.68
2019-05-12T12:42:53.710Z,29.87
2019-05-12T12:45:30.298Z,29.82
2019-05-12T12:48:03.857Z,29.66
2019-05-12T12:50:37.315Z,30.19
2019-05-12T12:53:10.858Z,30.43
2019-05-12T12:55:45.210Z,30.75
2019-05-12T12:58:21.129Z,30.82
2019-05-12T13:00:57.047Z,30.92
2019-05-12T13:03:30.194Z,30.78
2019-05-12T13:06:04.672Z,31.10
2019-05-12T13:08:38.281Z,30.72
2019-05-12T13:11:11.582Z,31.00
2019-05-12T13:13:46.083Z,30.96
2019-05-12T13:16:19.380Z,31.08
2019-05-12T13:18:53.828Z,31.16
2019-05-12T13:21:27.354Z,31.25
2019-05-12T13:24:00.696Z,30.79
2019-05-12T13:26:34.022Z,30.90
2019-05-12T13:29:07.373Z,30.22
2019-05-12T13:31:41.123Z,30.46
2019-05-12T13:34:15.703Z,30.02
2019-05-12T13:36:49.016Z,30.40
2019-05-12T13:39:24.215Z,29.79
2019-05-12T13:42:00.182Z,29.91
2019-05-12T13:44:38.707Z,29.66
2019-05-12T13:47:07.909Z,29.36
2019-05-12T13:49:45.370Z,29.29
2019-05-12T13:52:20.375Z,29.42
2019-05-12T13:54:51.450Z,29.05
2019-05-12T13:57:24.771Z,29.47
2019-05-12T14:00:08.527Z,29.71
2019-05-12T14:02:34.742Z,29.98
2019-05-12T14:05:11.446Z,30.17
2019-05-12T14:07:43.824Z,30.28
2019-05-12T14:10:17.259Z,30.41
2019-05-12T14:12:50.579Z,30.63
2019-05-12T14:15:24.846Z,30.34
2019-05-12T14:17:58.648Z,30.70
2019-05-12T14:20:34.456Z,30.94
2019-05-12T14:23:07.032Z,30.98
2019-05-12T14:25:40.389Z,31.03
2019-05-12T14:28:16.742Z,31.03
2019-05-12T14:30:53.833Z,30.44
2019-05-12T14:33:29.850Z,30.81
2019-05-12T14:36:00.519Z,30.89
2019-05-12T14:38:33.917Z,31.01
2019-05-12T14:41:10.362Z,30.60
2019-05-12T14:43:47.058Z,30.90
2019-05-12T14:46:17.311Z,30.78
2019-05-12T14:48:50.755Z,31.03
2019-05-12T14:51:25.114Z,31.16
2019-05-12T14:53:58.470Z,31.23
2019-05-12T14:56:33.766Z,31.32
2019-05-12T14:59:08.418Z,31.32
2019-05-12T15:01:56.621Z,30.96
2019-05-12T15:04:19.250Z,31.23
2019-05-12T15:06:53.362Z,31.07
2019-05-12T15:09:26.799Z,31.20
2019-05-12T15:12:00.126Z,31.24
2019-05-12T15:14:37.814Z,31.36
2019-05-12T15:17:13.885Z,31.43
2019-05-12T15:19:44.572Z,31.48
2019-05-12T15:22:17.913Z,31.05
2019-05-12T15:24:55.170Z,31.30
2019-05-12T15:27:41.283Z,31.23
2019-05-12T15:30:04.026Z,31.39
2019-05-12T15:32:36.629Z,31.46
2019-05-12T15:35:09.934Z,31.46
2019-05-12T15:37:43.821Z,30.98
2019-05-12T15:40:17.148Z,31.17
2019-05-12T15:42:54.940Z,30.49
2019-05-12T15:45:25.509Z,29.53
2019-05-12T15:47:58.887Z,28.97
2019-05-12T15:50:34.233Z,29.22
2019-05-12T15:53:07.303Z,28.61
2019-05-12T15:55:43.463Z,28.66
2019-05-12T15:58:17.023Z,28.52
2019-05-12T16:00:50.411Z,29.12
2019-05-12T16:03:26.323Z,29.00
2019-05-12T16:06:01.261Z,29.48
2019-05-12T16:08:33.956Z,29.76
2019-05-12T16:11:07.300Z,30.04
2019-05-12T16:13:44.934Z,29.99
2019-05-12T16:16:15.762Z,30.25
2019-05-12T16:18:50.746Z,30.51
2019-05-12T16:21:24.193Z,30.48
2019-05-12T16:24:04.972Z,30.46
2019-05-12T16:26:33.473Z,30.54
2019-05-12T16:29:07.396Z,30.69
2019-05-12T16:31:47.877Z,31.14
2019-05-12T16:34:15.783Z,31.06
2019-05-12T16:36:52.072Z,31.12
2019-05-12T16:39:24.154Z,31.49
2019-05-12T16:42:00.075Z,30.87
2019-05-12T16:44:34.813Z,31.03
2019-05-12T16:47:07.820Z,31.39
2019-05-12T16:49:41.440Z,31.55
2019-05-12T16:52:14.831Z,31.49
2019-05-12T16:54:48.180Z,31.52
2019-05-12T16:57:21.545Z,31.66
2019-05-12T17:00:02.229Z,31.61
2019-05-12T17:02:39.433Z,31.84
2019-05-12T17:05:14.594Z,31.89
2019-05-12T17:07:40.870Z,31.74
2019-05-12T17:10:16.394Z,31.78
2019-05-12T17:12:49.218Z,31.96
2019-05-12T17:15:23.547Z,31.89
2019-05-12T17:18:01.502Z,31.97
2019-05-12T17:20:33.619Z,32.11
2019-05-12T17:23:07.038Z,31.96
2019-05-12T17:25:40.352Z,31.45
2019-05-12T17:28:13.695Z,31.99
2019-05-12T17:30:47.007Z,32.33
2019-05-12T17:33:22.696Z,31.80
2019-05-12T17:35:55.375Z,32.21
2019-05-12T17:38:30.226Z,32.02
2019-05-12T17:41:03.933Z,32.19
2019-05-12T17:43:45.027Z,31.82
2019-05-12T17:46:17.805Z,31.81
2019-05-12T17:48:47.376Z,32.02
2019-05-12T17:51:26.764Z,32.31
2019-05-12T17:53:57.993Z,32.19
2019-05-12T17:56:34.222Z,32.45
2019-05-12T17:59:06.259Z,32.48
2019-05-12T18:01:39.551Z,32.67
2019-05-12T18:04:13.964Z,32.53
2019-05-12T18:06:47.512Z,32.66
2019-05-12T18:09:20.839Z,32.70
2019-05-12T18:11:56.131Z,32.99
2019-05-12T18:14:29.165Z,32.93
2019-05-12T18:17:08.515Z,33.22
2019-05-12T18:19:37.508Z,33.37
2019-05-12T18:22:10.839Z,33.55
2019-05-12T18:24:49.426Z,33.16
2019-05-12T18:27:20.275Z,33.17
2019-05-12T18:29:53.830Z,32.85
2019-05-12T18:32:27.189Z,32.98
2019-05-12T18:35:00.353Z,32.96
2019-05-12T18:37:34.417Z,32.61
2019-05-12T18:40:07.797Z,32.56
2019-05-12T18:42:41.124Z,32.75
2019-05-12T18:45:17.847Z,32.70
2019-05-12T18:47:49.790Z,32.87
2019-05-12T18:50:29.213Z,32.84
2019-05-12T18:52:58.767Z,32.72
2019-05-12T18:55:35.780Z,32.84
2019-05-12T18:58:09.512Z,32.84
2019-05-12T19:00:43.636Z,32.86
2019-05-12T19:03:20.441Z,32.84
2019-05-12T19:05:54.144Z,33.06
2019-05-12T19:08:27.187Z,32.66
2019-05-12T19:11:14.953Z,32.84
2019-05-12T19:13:35.585Z,33.17
2019-05-12T19:16:11.265Z,33.04
2019-05-12T19:18:44.120Z,33.16
2019-05-12T19:21:20.228Z,32.59
2019-05-12T19:23:54.832Z,33.00
2019-05-12T19:26:28.194Z,33.04
2019-05-12T19:29:03.816Z,32.96
2019-05-12T19:31:36.860Z,32.66
2019-05-12T19:34:19.857Z,33.06
2019-05-12T19:36:49.362Z,33.15
2019-05-12T19:39:25.188Z,33.28
2019-05-12T19:41:56.901Z,33.17
2019-05-12T19:44:30.819Z,33.40
2019-05-12T19:47:04.316Z,33.39
2019-05-12T19:49:48.001Z,33.47
2019-05-12T19:52:14.253Z,33.53
2019-05-12T19:54:47.637Z,33.68
2019-05-12T19:57:25.513Z,33.61
2019-05-12T19:59:56.362Z,33.60
2019-05-12T20:02:29.699Z,33.60
2019-05-12T20:05:04.895Z,33.45
2019-05-12T20:07:38.307Z,33.45
2019-05-12T20:10:16.305Z,33.54
2019-05-12T20:12:48.698Z,33.52
2019-05-12T20:15:24.150Z,33.45
2019-05-12T20:17:57.676Z,33.56
2019-05-12T20:20:36.761Z,33.54
2019-05-12T20:23:06.105Z,33.20
2019-05-12T20:25:39.417Z,33.59
2019-05-12T20:28:14.446Z,33.26
2019-05-12T20:30:54.376Z,33.55
2019-05-12T20:33:24.034Z,33.24
2019-05-12T20:35:57.588Z,32.73
2019-05-12T20:38:34.073Z,33.26
2019-05-12T20:41:10.973Z,33.46
2019-05-12T20:43:42.025Z,32.95
2019-05-12T20:46:21.715Z,33.39
2019-05-12T20:48:53.791Z,33.66
2019-05-12T20:51:27.249Z,33.53
2019-05-12T20:54:05.633Z,33.58
2019-05-12T20:56:35.739Z,33.68
2019-05-12T20:59:13.764Z,33.83
2019-05-12T21:01:44.362Z,33.47
2019-05-12T21:04:22.172Z,33.66
2019-05-12T21:06:54.258Z,32.84
2019-05-12T21:09:27.772Z,33.13
2019-05-12T21:12:01.094Z,33.05
2019-05-12T21:14:34.449Z,33.44
2019-05-12T21:17:09.401Z,34.36
2019-05-12T21:19:55.801Z,34.33
2019-05-12T21:22:17.859Z,34.10
2019-05-12T21:24:53.378Z,34.36
2019-05-12T21:27:26.219Z,34.32
2019-05-12T21:30:00.687Z,34.25
2019-05-12T21:32:34.581Z,34.32
2019-05-12T21:35:18.150Z,34.45
2019-05-12T21:37:46.111Z,34.41
2019-05-12T21:40:22.361Z,34.41
2019-05-12T21:42:53.780Z,34.47
2019-05-12T21:45:30.854Z,34.53
2019-05-12T21:48:03.641Z,34.54
2019-05-12T21:50:39.241Z,34.56
2019-05-12T21:53:17.462Z,34.52
2019-05-12T21:55:47.580Z,34.53
2019-05-12T21:58:20.891Z,34.41
2019-05-12T22:01:04.109Z,34.43
2019-05-12T22:03:33.453Z,34.37
2019-05-12T22:06:19.115Z,34.40
2019-05-12T22:08:44.238Z,34.36
2019-05-12T22:11:17.647Z,34.36
2019-05-12T22:13:58.231Z,34.39
2019-05-12T22:16:29.563Z,34.34
2019-05-12T22:19:01.643Z,34.32
2019-05-12T22:21:44.440Z,34.31
2019-05-12T22:24:11.108Z,34.28
2019-05-12T22:26:46.655Z,34.30
2019-05-12T22:29:21.370Z,34.34
2019-05-12T22:31:54.466Z,34.29
2019-05-12T22:34:37.177Z,34.34
2019-05-12T22:37:03.909Z,34.24
2019-05-12T22:39:38.497Z,34.29
2019-05-12T22:42:19.763Z,34.24
2019-05-12T22:44:46.807Z,34.18
2019-05-12T22:47:20.124Z,34.28
2019-05-12T22:49:57.011Z,34.27
2019-05-12T22:52:28.563Z,34.25
2019-05-12T22:55:03.618Z,34.21
2019-05-12T22:57:40.073Z,34.22
2019-05-12T23:00:19.344Z,34.17
2019-05-12T23:02:50.056Z,34.24
2019-05-12T23:05:24.164Z,34.27
2019-05-12T23:08:00.143Z,34.24
2019-05-12T23:10:33.830Z,34.21
2019-05-12T23:13:08.055Z,34.18
2019-05-12T23:15:47.589Z,34.21
2019-05-12T23:18:19.659Z,34.22
2019-05-12T23:20:54.149Z,34.17
2019-05-12T23:23:27.204Z,34.14
2019-05-12T23:26:01.920Z,34.16
2019-05-12T23:28:40.428Z,34.18
2019-05-12T23:31:10.638Z,34.13
2019-05-12T23:33:44.224Z,34.12
2019-05-12T23:36:19.631Z,34.08
2019-05-12T23:39:00.474Z,34.10
2019-05-12T23:41:27.576Z,34.08
2019-05-12T23:44:01.058Z,34.08
2019-05-12T23:46:34.433Z,34.05
2019-05-12T23:49:07.807Z,34.07
2019-05-12T23:51:41.100Z,34.04
2019-05-12T23:54:14.541Z,34.06
2019-05-12T23:56:47.844Z,34.02
2019-05-12T23:59:21.181Z,33.98
